Portland, Oregon
Traffic Map
Current Weather Conditions
Portland, Oregon
Few Clouds
Few Clouds
83°
Feels Like: 83°
Wind Chill: 83° Ceiling: Unl
Heat Index: 83° Visibility: 10mi
Dew Point: 47° Wind: 9mph
Humidity: 28% Direction: 280° (W)
Pressure: 29.99in Gusts: 0mph
Raw Report DataKPDX 282353Z 28008KT 10SM FEW080 FEW150 FEW250 28/08 A2999 RMK AO2 SLP155 T02830083 10289 20194 57014
Traffic Incident Summary
Active as of:
Severity:
Category:
InformationThere was an issue retrieving the traffic information for this location. Please try a different location or try again shortly.
Advertisements
Track Severe Weather on mobile